createdAt,value
2022-09-28T00:01:07.023Z,74.95
2022-09-28T00:03:33.617Z,75.03
2022-09-28T00:06:04.787Z,75.16
2022-09-28T00:08:31.444Z,75.01
2022-09-28T00:10:58.231Z,75.14
2022-09-28T00:13:24.657Z,75.54
2022-09-28T00:16:01.275Z,75.37
2022-09-28T00:18:28.385Z,75.77
2022-09-28T00:21:01.831Z,75.69
2022-09-28T00:23:28.235Z,75.44
2022-09-28T00:25:54.684Z,75.50
2022-09-28T00:28:21.033Z,75.22
2022-09-28T00:30:47.395Z,75.29
2022-09-28T00:33:13.756Z,75.43
2022-09-28T00:35:40.181Z,75.71
2022-09-28T00:38:09.230Z,75.51
2022-09-28T00:40:35.685Z,75.70
2022-09-28T00:43:16.423Z,75.37
2022-09-28T00:45:43.014Z,75.34
2022-09-28T00:48:09.375Z,75.49
2022-09-28T00:50:37.406Z,75.49
2022-09-28T00:53:03.854Z,75.93
2022-09-28T00:55:34.427Z,75.53
2022-09-28T00:58:03.132Z,75.47
2022-09-28T01:00:29.709Z,75.85
2022-09-28T01:02:56.246Z,76.01
2022-09-28T01:05:24.255Z,75.64
2022-09-28T01:07:50.806Z,75.24
2022-09-28T01:10:18.252Z,75.40
2022-09-28T01:12:44.722Z,75.63
2022-09-28T01:15:11.644Z,75.26
2022-09-28T01:17:48.834Z,74.83
2022-09-28T01:20:44.460Z,75.02
2022-09-28T01:23:15.270Z,75.10
2022-09-28T01:25:55.020Z,75.33
2022-09-28T01:28:25.652Z,74.95
2022-09-28T01:31:04.692Z,74.99
2022-09-28T01:33:43.299Z,74.79
2022-09-28T01:36:12.482Z,74.77
2022-09-28T01:38:46.477Z,74.84
2022-09-28T01:41:13.559Z,75.15
2022-09-28T01:43:42.707Z,74.89
2022-09-28T01:46:14.180Z,74.90
2022-09-28T01:48:50.082Z,74.72
2022-09-28T01:51:25.042Z,74.84
2022-09-28T01:53:53.249Z,74.92
2022-09-28T01:56:25.752Z,74.94
2022-09-28T01:58:59.726Z,74.96
2022-09-28T02:01:29.315Z,74.81
2022-09-28T02:04:12.083Z,75.10
2022-09-28T02:06:45.880Z,74.95
2022-09-28T02:09:16.869Z,74.95
2022-09-28T02:11:50.326Z,74.91
2022-09-28T02:14:19.615Z,74.95
2022-09-28T02:16:48.936Z,75.26
2022-09-28T02:19:26.152Z,74.98
2022-09-28T02:22:01.864Z,75.07
2022-09-28T02:24:35.248Z,75.36
2022-09-28T02:27:07.801Z,75.40
2022-09-28T02:29:34.371Z,75.45
2022-09-28T02:32:00.969Z,75.43
2022-09-28T02:34:28.021Z,75.27
2022-09-28T02:36:54.503Z,75.20
2022-09-28T02:39:20.908Z,75.38
2022-09-28T02:42:11.426Z,75.47
2022-09-28T02:44:38.115Z,75.42
2022-09-28T02:47:11.135Z,75.71
2022-09-28T02:49:48.152Z,75.86
2022-09-28T02:52:33.449Z,75.43
2022-09-28T02:55:14.856Z,75.84
2022-09-28T02:57:41.188Z,75.68
2022-09-28T03:00:21.688Z,75.68
2022-09-28T03:03:06.211Z,75.78
2022-09-28T03:05:41.508Z,76.03
2022-09-28T03:08:23.652Z,75.76
2022-09-28T03:11:02.310Z,75.83
2022-09-28T03:13:30.800Z,75.67
2022-09-28T03:16:13.930Z,76.11
2022-09-28T03:18:41.960Z,75.94
2022-09-28T03:21:09.337Z,76.04
2022-09-28T03:23:35.737Z,75.93
2022-09-28T03:26:02.418Z,75.93
2022-09-28T03:28:29.709Z,76.03
2022-09-28T03:30:57.910Z,76.10
2022-09-28T03:33:24.265Z,75.97
2022-09-28T03:35:50.875Z,76.18
2022-09-28T03:38:18.583Z,76.02
2022-09-28T03:40:56.506Z,76.62
2022-09-28T03:43:23.710Z,76.43
2022-09-28T03:45:55.433Z,76.42
2022-09-28T03:48:31.370Z,76.35
2022-09-28T03:51:00.337Z,76.73
2022-09-28T03:53:26.945Z,76.46
2022-09-28T03:55:53.663Z,76.37
2022-09-28T03:58:20.977Z,76.81
2022-09-28T04:03:38.244Z,76.75
2022-09-28T04:06:04.875Z,76.83
2022-09-28T04:08:31.278Z,76.50
2022-09-28T04:10:59.126Z,76.58
2022-09-28T04:13:25.952Z,76.89
2022-09-28T04:15:56.653Z,76.91
2022-09-28T04:18:23.663Z,76.65
2022-09-28T04:21:14.201Z,76.68
2022-09-28T04:24:10.451Z,76.71
2022-09-28T04:26:37.298Z,77.07
2022-09-28T04:29:19.702Z,76.81
2022-09-28T04:31:55.234Z,76.82
2022-09-28T04:34:36.478Z,77.23
2022-09-28T04:37:04.806Z,76.85
2022-09-28T04:39:31.231Z,77.37
2022-09-28T04:41:57.685Z,77.27
2022-09-28T04:44:24.111Z,77.41
2022-09-28T04:46:56.623Z,77.48
2022-09-28T04:49:43.279Z,77.71
2022-09-28T04:52:26.674Z,77.61
2022-09-28T04:54:53.057Z,77.65
2022-09-28T04:57:19.471Z,77.71
2022-09-28T04:59:45.889Z,77.68
2022-09-28T05:02:15.049Z,77.61
2022-09-28T05:05:14.104Z,77.89
2022-09-28T05:08:03.361Z,78.22
2022-09-28T05:10:29.828Z,78.23
2022-09-28T05:12:56.251Z,78.00
2022-09-28T05:15:22.631Z,77.97
2022-09-28T05:17:49.090Z,78.09
2022-09-28T05:20:44.545Z,77.95
2022-09-28T05:23:12.253Z,78.07
2022-09-28T05:25:40.179Z,77.96
2022-09-28T05:28:20.262Z,77.88
2022-09-28T05:31:06.630Z,78.13
2022-09-28T05:34:08.331Z,78.62
2022-09-28T05:36:35.668Z,78.30
2022-09-28T05:39:03.903Z,78.26
2022-09-28T05:41:30.685Z,77.86
2022-09-28T05:43:58.098Z,77.79
2022-09-28T05:46:24.621Z,77.84
2022-09-28T05:48:52.617Z,77.69
2022-09-28T05:51:19.339Z,77.63
2022-09-28T05:53:46.120Z,77.49
2022-09-28T05:56:13.038Z,77.63
2022-09-28T05:58:43.356Z,77.66
2022-09-28T06:01:10.807Z,77.44
2022-09-28T06:03:37.463Z,77.49
2022-09-28T06:06:04.296Z,77.52
2022-09-28T06:08:32.689Z,77.61
2022-09-28T06:11:18.674Z,77.72
2022-09-28T06:13:46.265Z,77.49
2022-09-28T06:16:16.768Z,77.56
2022-09-28T06:18:43.582Z,77.75
2022-09-28T06:21:28.410Z,77.61
2022-09-28T06:23:54.828Z,77.51
2022-09-28T06:26:21.394Z,77.52
2022-09-28T06:28:48.399Z,77.53
2022-09-28T06:31:16.003Z,77.47
2022-09-28T06:33:48.205Z,77.46
2022-09-28T06:36:14.970Z,77.37
2022-09-28T06:38:41.802Z,77.35
2022-09-28T06:41:08.590Z,77.11
2022-09-28T06:43:39.634Z,77.06
2022-09-28T06:46:12.789Z,77.16
2022-09-28T06:48:39.232Z,77.10
2022-09-28T06:51:08.321Z,76.88
2022-09-28T06:53:53.900Z,76.76
2022-09-28T06:56:37.108Z,76.75
2022-09-28T06:59:03.921Z,76.34
2022-09-28T07:01:30.753Z,76.18
2022-09-28T07:04:11.388Z,76.00
2022-09-28T07:07:00.441Z,75.80
2022-09-28T07:09:50.278Z,75.85
2022-09-28T07:12:36.249Z,75.35
2022-09-28T07:15:12.213Z,75.49
2022-09-28T07:17:54.456Z,75.25
2022-09-28T07:20:25.278Z,75.07
2022-09-28T07:22:55.616Z,75.02
2022-09-28T07:25:23.908Z,74.55
2022-09-28T07:28:07.284Z,73.71
2022-09-28T07:30:52.174Z,73.81
2022-09-28T07:33:38.613Z,73.57
2022-09-28T07:36:30.282Z,73.59
2022-09-28T07:38:57.886Z,73.54
2022-09-28T07:41:32.604Z,73.12
2022-09-28T07:44:07.741Z,72.95
2022-09-28T07:46:36.974Z,72.67
2022-09-28T07:49:22.453Z,72.10
2022-09-28T07:52:08.086Z,71.83
2022-09-28T07:54:47.070Z,71.60
2022-09-28T07:57:33.751Z,71.59
2022-09-28T08:00:21.188Z,70.96
2022-09-28T08:02:48.411Z,70.77
2022-09-28T08:05:22.001Z,69.75
2022-09-28T08:07:48.522Z,69.14
2022-09-28T08:10:17.018Z,68.72
2022-09-28T08:13:04.770Z,68.70
2022-09-28T08:15:52.740Z,68.40
2022-09-28T08:18:31.535Z,68.13
2022-09-28T08:21:16.498Z,68.11
2022-09-28T08:23:43.324Z,67.47
2022-09-28T08:26:15.192Z,66.98
2022-09-28T08:28:43.226Z,67.30
2022-09-28T08:31:29.572Z,66.96
2022-09-28T08:34:10.237Z,65.93
2022-09-28T08:37:04.308Z,66.73
2022-09-28T08:40:02.694Z,66.85
2022-09-28T08:42:57.777Z,66.62
2022-09-28T08:45:42.956Z,66.59
2022-09-28T08:49:01.144Z,66.03
2022-09-28T08:52:00.546Z,66.43
2022-09-28T08:54:43.952Z,66.59
2022-09-28T08:57:22.721Z,66.68
2022-09-28T08:59:53.579Z,66.69
2022-09-28T09:02:39.653Z,66.52
2022-09-28T09:05:19.981Z,65.82
2022-09-28T09:08:22.205Z,65.25
2022-09-28T09:10:53.826Z,64.99
2022-09-28T09:13:28.427Z,64.54
2022-09-28T09:15:55.135Z,64.31
2022-09-28T09:18:49.223Z,64.09
2022-09-28T09:21:41.778Z,63.15
2022-09-28T09:24:30.420Z,63.32
2022-09-28T09:27:05.342Z,63.29
2022-09-28T09:29:32.096Z,63.28
2022-09-28T09:32:04.062Z,63.87
2022-09-28T09:34:31.322Z,63.91
2022-09-28T09:37:21.376Z,64.09
2022-09-28T09:40:12.563Z,64.24
2022-09-28T09:43:27.932Z,63.10
2022-09-28T09:46:19.008Z,62.57
2022-09-28T09:48:58.988Z,61.39
2022-09-28T09:51:32.046Z,61.16
2022-09-28T09:54:21.931Z,60.67
2022-09-28T09:56:54.767Z,59.82
2022-09-28T09:59:42.953Z,58.87
2022-09-28T10:02:24.247Z,58.99
2022-09-28T10:05:11.664Z,59.17
2022-09-28T10:07:43.397Z,59.51
2022-09-28T10:10:22.846Z,59.07
2022-09-28T10:12:52.993Z,58.91
2022-09-28T10:15:27.207Z,58.47
2022-09-28T10:18:13.065Z,58.53
2022-09-28T10:20:57.867Z,58.28
2022-09-28T10:23:36.500Z,57.39
2022-09-28T10:26:10.124Z,57.53
2022-09-28T10:28:43.076Z,57.16
2022-09-28T10:31:29.055Z,57.09
2022-09-28T10:33:57.616Z,57.24
2022-09-28T10:36:26.198Z,56.27
2022-09-28T10:38:54.394Z,56.71
2022-09-28T10:41:32.082Z,56.32
2022-09-28T10:44:06.935Z,55.99
2022-09-28T10:47:01.291Z,55.94
2022-09-28T10:49:37.384Z,56.01
2022-09-28T10:52:08.561Z,56.23
2022-09-28T10:54:52.162Z,55.28
2022-09-28T10:57:33.652Z,54.74
2022-09-28T11:00:06.885Z,54.75
2022-09-28T11:02:40.348Z,53.91
2022-09-28T11:05:21.865Z,53.44
2022-09-28T11:07:49.284Z,53.71
2022-09-28T11:10:21.607Z,53.55
2022-09-28T11:12:49.559Z,53.99
2022-09-28T11:15:21.276Z,53.21
2022-09-28T11:17:49.868Z,52.87
2022-09-28T11:20:27.876Z,52.81
2022-09-28T11:23:17.544Z,52.73
2022-09-28T11:25:55.534Z,52.05
2022-09-28T11:28:24.056Z,51.35
2022-09-28T11:30:52.594Z,51.19
2022-09-28T11:33:31.055Z,51.48
2022-09-28T11:36:29.520Z,50.92
2022-09-28T11:39:11.329Z,51.06
2022-09-28T11:41:55.500Z,50.98
2022-09-28T11:44:48.878Z,51.01
2022-09-28T11:47:32.084Z,50.81
2022-09-28T11:50:03.857Z,50.67
2022-09-28T11:52:50.531Z,50.34
2022-09-28T11:55:17.099Z,50.09
2022-09-28T11:57:46.394Z,50.85
2022-09-28T12:00:15.314Z,50.86
2022-09-28T12:03:06.350Z,50.08
2022-09-28T12:05:32.982Z,50.52
2022-09-28T12:08:09.717Z,50.20
2022-09-28T12:11:00.633Z,50.61
2022-09-28T12:13:47.973Z,50.13
2022-09-28T12:19:13.597Z,50.35
2022-09-28T12:21:43.862Z,49.97
2022-09-28T12:24:32.136Z,50.18
2022-09-28T12:26:58.504Z,49.83
2022-09-28T12:29:48.522Z,49.58
2022-09-28T12:32:26.546Z,49.60
2022-09-28T12:34:53.078Z,49.54
2022-09-28T12:37:22.467Z,49.63
2022-09-28T12:40:07.036Z,49.47
2022-09-28T12:42:46.052Z,49.47
2022-09-28T12:45:17.594Z,49.14
2022-09-28T12:48:04.257Z,49.14
2022-09-28T12:50:39.006Z,48.89
2022-09-28T12:53:06.545Z,48.61
2022-09-28T12:55:33.268Z,48.43
2022-09-28T12:58:06.431Z,48.26
2022-09-28T13:00:37.663Z,48.13
2022-09-28T13:03:19.581Z,47.69
2022-09-28T13:06:05.634Z,46.97
2022-09-28T13:08:38.012Z,46.98
2022-09-28T13:11:15.554Z,46.24
2022-09-28T13:13:48.034Z,45.47
2022-09-28T13:16:23.637Z,45.66
2022-09-28T13:18:50.052Z,45.16
2022-09-28T13:21:39.530Z,45.40
2022-09-28T13:24:28.204Z,45.51
2022-09-28T13:26:57.660Z,45.33
2022-09-28T13:29:24.367Z,45.34
2022-09-28T13:31:52.711Z,45.37
2022-09-28T13:34:22.518Z,45.25
2022-09-28T13:37:07.831Z,44.96
2022-09-28T13:39:46.232Z,45.05
2022-09-28T13:42:29.165Z,45.43
2022-09-28T13:45:14.374Z,45.33
2022-09-28T13:47:41.373Z,45.48
2022-09-28T13:50:21.212Z,46.12
2022-09-28T13:53:23.513Z,46.33
2022-09-28T13:55:50.284Z,46.99
2022-09-28T13:58:16.678Z,47.17
2022-09-28T14:00:46.114Z,47.22
2022-09-28T14:03:14.968Z,47.16
2022-09-28T14:05:41.620Z,47.06
2022-09-28T14:08:23.330Z,47.10
2022-09-28T14:10:51.725Z,46.70
2022-09-28T14:13:36.913Z,46.69
2022-09-28T14:16:20.950Z,46.49
2022-09-28T14:18:59.366Z,46.79
2022-09-28T14:21:47.259Z,46.69
2022-09-28T14:24:30.224Z,46.59
2022-09-28T14:27:10.155Z,46.96
2022-09-28T14:29:38.308Z,47.05
2022-09-28T14:32:07.760Z,46.83
2022-09-28T14:34:34.289Z,46.80
2022-09-28T14:37:20.803Z,47.08
2022-09-28T14:40:06.482Z,46.24
2022-09-28T14:42:33.048Z,46.53
2022-09-28T14:45:06.230Z,45.85
2022-09-28T14:47:52.618Z,45.92
2022-09-28T14:50:28.117Z,46.32
2022-09-28T14:52:55.681Z,46.66
2022-09-28T14:55:31.017Z,46.70
2022-09-28T14:57:58.547Z,46.62
2022-09-28T15:00:27.196Z,46.60
2022-09-28T15:02:55.121Z,46.80
2022-09-28T15:05:24.223Z,47.17
2022-09-28T15:07:52.280Z,47.34
2022-09-28T15:10:28.199Z,47.47
2022-09-28T15:12:56.035Z,47.21
2022-09-28T15:15:25.712Z,47.62
2022-09-28T15:17:57.904Z,47.79
2022-09-28T15:20:29.853Z,47.38
2022-09-28T15:22:57.337Z,47.17
2022-09-28T15:25:27.854Z,47.61
2022-09-28T15:27:58.370Z,47.27
2022-09-28T15:30:29.534Z,47.31
2022-09-28T15:32:56.974Z,47.76
2022-09-28T15:35:27.611Z,47.74
2022-09-28T15:37:54.875Z,47.70
2022-09-28T15:40:33.348Z,47.68
2022-09-28T15:42:59.802Z,47.76
2022-09-28T15:45:27.566Z,47.84
2022-09-28T15:48:15.051Z,48.13
2022-09-28T15:50:48.716Z,47.93
2022-09-28T15:53:17.909Z,48.05
2022-09-28T15:55:44.872Z,47.95
2022-09-28T15:58:19.168Z,48.01
2022-09-28T16:00:47.084Z,48.13
2022-09-28T16:03:16.491Z,48.19
2022-09-28T16:05:46.588Z,48.56
2022-09-28T16:08:26.209Z,48.72
2022-09-28T16:10:53.272Z,48.67
2022-09-28T16:13:22.279Z,49.05
2022-09-28T16:15:55.063Z,48.89
2022-09-28T16:18:23.508Z,48.87
2022-09-28T16:20:51.867Z,48.71
2022-09-28T16:23:26.781Z,48.71
2022-09-28T16:25:53.191Z,49.00
2022-09-28T16:28:35.089Z,48.69
2022-09-28T16:31:07.551Z,48.85
2022-09-28T16:33:45.131Z,49.30
2022-09-28T16:36:12.997Z,48.88
2022-09-28T16:38:39.441Z,49.14
2022-09-28T16:41:06.068Z,49.10
2022-09-28T16:43:34.944Z,49.23
2022-09-28T16:46:12.772Z,49.43
2022-09-28T16:48:57.062Z,49.37
2022-09-28T16:51:23.491Z,49.49
2022-09-28T16:54:08.538Z,50.11
2022-09-28T16:56:36.021Z,50.18
2022-09-28T16:59:02.497Z,50.47
2022-09-28T17:01:31.718Z,50.96
2022-09-28T17:03:58.248Z,50.83
2022-09-28T17:06:25.301Z,50.94
2022-09-28T17:08:51.964Z,50.95
2022-09-28T17:11:24.164Z,50.98
2022-09-28T17:13:52.052Z,51.25
2022-09-28T17:16:32.559Z,51.15
2022-09-28T17:19:18.069Z,51.41
2022-09-28T17:21:44.678Z,51.51
2022-09-28T17:24:11.253Z,51.86
2022-09-28T17:26:38.338Z,51.90
2022-09-28T17:29:08.686Z,52.24
2022-09-28T17:31:35.180Z,52.37
2022-09-28T17:34:01.747Z,52.76
2022-09-28T17:36:30.362Z,52.83
2022-09-28T17:38:57.257Z,53.38
2022-09-28T17:41:23.774Z,53.21
2022-09-28T17:43:50.199Z,53.24
2022-09-28T17:46:19.648Z,53.57
2022-09-28T17:48:47.431Z,53.70
2022-09-28T17:51:14.066Z,53.79
2022-09-28T17:53:40.627Z,53.78
2022-09-28T17:56:07.140Z,54.02
2022-09-28T17:58:33.843Z,54.37
2022-09-28T18:01:00.316Z,54.33
2022-09-28T18:03:27.042Z,54.77
2022-09-28T18:06:04.380Z,54.51
2022-09-28T18:08:34.121Z,54.77
2022-09-28T18:11:01.637Z,54.92
2022-09-28T18:13:28.240Z,54.81
2022-09-28T18:15:55.391Z,55.21
2022-09-28T18:18:22.495Z,55.05
2022-09-28T18:20:48.889Z,55.39
2022-09-28T18:23:15.303Z,55.70
2022-09-28T18:25:43.020Z,55.68
2022-09-28T18:28:09.908Z,55.67
2022-09-28T18:30:38.962Z,55.79
2022-09-28T18:33:05.606Z,56.20
2022-09-28T18:35:32.422Z,56.24
2022-09-28T18:37:58.777Z,56.38
2022-09-28T18:40:25.241Z,56.49
2022-09-28T18:42:51.666Z,56.35
2022-09-28T18:45:18.528Z,56.77
2022-09-28T18:47:45.300Z,56.56
2022-09-28T18:50:18.084Z,56.60
2022-09-28T18:52:44.972Z,56.90
2022-09-28T18:55:11.951Z,56.96
2022-09-28T18:57:40.341Z,57.39
2022-09-28T19:00:08.840Z,57.61
2022-09-28T19:02:35.864Z,57.81
2022-09-28T19:05:02.368Z,57.97
2022-09-28T19:07:28.772Z,58.08
2022-09-28T19:09:57.493Z,58.37
2022-09-28T19:12:23.947Z,58.44
2022-09-28T19:14:50.300Z,58.38
2022-09-28T19:17:18.057Z,58.57
2022-09-28T19:19:44.953Z,58.95
2022-09-28T19:22:11.969Z,59.30
2022-09-28T19:24:38.626Z,59.16
2022-09-28T19:27:05.038Z,59.36
2022-09-28T19:29:31.436Z,59.57
2022-09-28T19:31:58.113Z,59.91
2022-09-28T19:34:26.944Z,60.10
2022-09-28T19:36:53.331Z,60.26
2022-09-28T19:39:19.818Z,60.14
2022-09-28T19:41:52.947Z,60.16
2022-09-28T19:44:27.264Z,60.22
2022-09-28T19:46:54.635Z,60.42
2022-09-28T19:49:22.408Z,60.66
2022-09-28T19:54:38.014Z,60.84
2022-09-28T19:57:08.479Z,61.19
2022-09-28T19:59:36.498Z,61.37
2022-09-28T20:02:03.107Z,61.28
2022-09-28T20:04:30.008Z,61.89
2022-09-28T20:06:56.412Z,62.07
2022-09-28T20:09:22.818Z,62.29
2022-09-28T20:11:51.242Z,62.18
2022-09-28T20:14:18.608Z,62.57
2022-09-28T20:16:46.127Z,62.55
2022-09-28T20:19:12.898Z,62.98
2022-09-28T20:21:39.299Z,63.04
2022-09-28T20:24:05.843Z,62.99
2022-09-28T20:26:37.819Z,63.49
2022-09-28T20:29:04.971Z,63.10
2022-09-28T20:31:31.451Z,63.19
2022-09-28T20:33:57.915Z,63.27
2022-09-28T20:36:25.141Z,64.01
2022-09-28T20:38:52.457Z,63.98
2022-09-28T20:41:19.805Z,64.05
2022-09-28T20:43:46.733Z,64.24
2022-09-28T20:46:13.890Z,64.41
2022-09-28T20:48:40.613Z,64.30
2022-09-28T20:51:14.142Z,64.47
2022-09-28T20:53:42.922Z,64.28
2022-09-28T20:56:14.039Z,64.29
2022-09-28T20:58:40.706Z,64.11
2022-09-28T21:01:09.629Z,64.16
2022-09-28T21:03:37.048Z,63.84
2022-09-28T21:06:07.589Z,64.28
2022-09-28T21:08:36.660Z,64.18
2022-09-28T21:11:03.041Z,63.97
2022-09-28T21:13:29.579Z,63.88
2022-09-28T21:16:00.699Z,64.20
2022-09-28T21:18:27.498Z,64.24
2022-09-28T21:20:55.112Z,64.42
2022-09-28T21:23:24.713Z,64.33
2022-09-28T21:26:00.388Z,64.50
2022-09-28T21:28:26.876Z,64.22
2022-09-28T21:30:53.399Z,64.57
2022-09-28T21:33:19.824Z,64.41
2022-09-28T21:35:46.286Z,64.31
2022-09-28T21:38:12.723Z,64.28
2022-09-28T21:40:39.212Z,64.45
2022-09-28T21:43:05.637Z,64.38
2022-09-28T21:45:32.466Z,64.49
2022-09-28T21:47:59.089Z,64.74
2022-09-28T21:50:26.051Z,64.50
2022-09-28T21:52:53.481Z,64.59
2022-09-28T21:55:20.592Z,64.25
2022-09-28T21:57:47.563Z,63.95
2022-09-28T22:00:18.468Z,64.45
2022-09-28T22:02:45.405Z,64.45
2022-09-28T22:05:12.617Z,64.45
2022-09-28T22:07:39.893Z,64.61
2022-09-28T22:10:07.013Z,65.08
2022-09-28T22:12:33.397Z,64.94
2022-09-28T22:15:00.279Z,65.32
2022-09-28T22:17:26.708Z,65.34
2022-09-28T22:19:53.359Z,65.69
2022-09-28T22:22:19.827Z,65.84
2022-09-28T22:24:46.242Z,66.12
2022-09-28T22:27:12.887Z,66.29
2022-09-28T22:29:39.339Z,66.04
2022-09-28T22:32:07.441Z,66.57
2022-09-28T22:34:34.106Z,66.85
2022-09-28T22:37:03.122Z,66.97
2022-09-28T22:39:34.234Z,66.80
2022-09-28T22:42:03.177Z,66.99
2022-09-28T22:44:29.632Z,66.69
2022-09-28T22:46:56.103Z,67.08
2022-09-28T22:49:22.757Z,67.64
2022-09-28T22:51:49.290Z,67.72
2022-09-28T22:54:16.389Z,67.64
2022-09-28T22:56:43.535Z,67.65
2022-09-28T22:59:11.397Z,67.99
2022-09-28T23:01:38.098Z,67.72
2022-09-28T23:04:04.626Z,67.90
2022-09-28T23:06:31.107Z,67.89
2022-09-28T23:08:57.671Z,68.00
2022-09-28T23:11:24.147Z,68.01
2022-09-28T23:13:55.410Z,67.77
2022-09-28T23:16:24.762Z,68.03
2022-09-28T23:18:52.272Z,68.00
2022-09-28T23:21:21.328Z,68.08
2022-09-28T23:23:52.307Z,67.79
2022-09-28T23:26:19.962Z,67.87
2022-09-28T23:28:46.585Z,68.03
2022-09-28T23:31:15.363Z,67.75
2022-09-28T23:33:41.917Z,67.68
2022-09-28T23:36:08.454Z,67.59
2022-09-28T23:38:35.181Z,67.65
2022-09-28T23:41:01.709Z,67.63
2022-09-28T23:43:28.249Z,67.77
2022-09-28T23:45:54.664Z,68.02
2022-09-28T23:48:21.049Z,68.00
2022-09-28T23:50:47.595Z,68.06
2022-09-28T23:53:14.664Z,68.01
2022-09-28T23:55:44.137Z,68.29
2022-09-28T23:58:11.078Z,68.07
